sensor_id;sensor_type;location;lat;lon;timestamp;pressure;altitude;pressure_sealevel;temperature;humidity
2184;BME280;1098;48.940;8.962;2023-02-20T00:01:53;99619.91;;;10.23;100.00
2184;BME280;1098;48.940;8.962;2023-02-20T00:04:23;99622.88;;;10.07;100.00
2184;BME280;1098;48.940;8.962;2023-02-20T00:06:52;99618.03;;;10.51;100.00
2184;BME280;1098;48.940;8.962;2023-02-20T00:09:20;99614.63;;;10.36;100.00
2184;BME280;1098;48.940;8.962;2023-02-20T00:11:48;99598.81;;;10.33;100.00
2184;BME280;1098;48.940;8.962;2023-02-20T00:14:17;99611.69;;;10.10;100.00
2184;BME280;1098;48.940;8.962;2023-02-20T00:16:45;99610.25;;;10.35;100.00
2184;BME280;1098;48.940;8.962;2023-02-20T00:19:15;99617.00;;;9.96;100.00
2184;BME280;1098;48.940;8.962;2023-02-20T00:21:45;99605.03;;;9.84;100.00
2184;BME280;1098;48.940;8.962;2023-02-20T00:24:15;99611.75;;;10.16;100.00
2184;BME280;1098;48.940;8.962;2023-02-20T00:26:47;99612.56;;;9.89;100.00
2184;BME280;1098;48.940;8.962;2023-02-20T00:29:16;99614.13;;;10.05;100.00
2184;BME280;1098;48.940;8.962;2023-02-20T00:31:49;99614.13;;;10.05;100.00
2184;BME280;1098;48.940;8.962;2023-02-20T00:34:19;99629.41;;;9.91;100.00
2184;BME280;1098;48.940;8.962;2023-02-20T00:36:48;99636.84;;;9.89;100.00
2184;BME280;1098;48.940;8.962;2023-02-20T00:39:17;99641.84;;;10.13;100.00
2184;BME280;1098;48.940;8.962;2023-02-20T00:41:45;99638.88;;;10.08;100.00
2184;BME280;1098;48.940;8.962;2023-02-20T00:44:15;99627.66;;;9.83;100.00
2184;BME280;1098;48.940;8.962;2023-02-20T00:46:43;99630.53;;;9.54;100.00
2184;BME280;1098;48.940;8.962;2023-02-20T00:49:12;99629.34;;;9.84;100.00
2184;BME280;1098;48.940;8.962;2023-02-20T00:51:46;99633.41;;;9.74;100.00
2184;BME280;1098;48.940;8.962;2023-02-20T00:54:16;99621.25;;;9.63;100.00
2184;BME280;1098;48.940;8.962;2023-02-20T00:56:44;99629.41;;;9.48;100.00
2184;BME280;1098;48.940;8.962;2023-02-20T00:59:13;99615.94;;;9.70;100.00
2184;BME280;1098;48.940;8.962;2023-02-20T01:01:43;99637.81;;;9.39;100.00
2184;BME280;1098;48.940;8.962;2023-02-20T01:04:12;99637.31;;;9.92;100.00
2184;BME280;1098;48.940;8.962;2023-02-20T01:06:41;99629.84;;;9.94;100.00
2184;BME280;1098;48.940;8.962;2023-02-20T01:09:11;99633.53;;;9.87;100.00
2184;BME280;1098;48.940;8.962;2023-02-20T01:11:42;99633.53;;;9.44;100.00
2184;BME280;1098;48.940;8.962;2023-02-20T01:14:12;99624.88;;;9.98;100.00
2184;BME280;1098;48.940;8.962;2023-02-20T01:16:45;99624.13;;;9.40;100.00
2184;BME280;1098;48.940;8.962;2023-02-20T01:19:17;99615.94;;;9.70;100.00
2184;BME280;1098;48.940;8.962;2023-02-20T01:21:46;99618.50;;;9.35;100.00
2184;BME280;1098;48.940;8.962;2023-02-20T01:24:15;99612.84;;;9.51;100.00
2184;BME280;1098;48.940;8.962;2023-02-20T01:26:48;99625.25;;;9.46;100.00
2184;BME280;1098;48.940;8.962;2023-02-20T01:29:17;99624.06;;;9.12;100.00
2184;BME280;1098;48.940;8.962;2023-02-20T01:31:47;99626.19;;;9.02;100.00
2184;BME280;1098;48.940;8.962;2023-02-20T01:34:16;99608.06;;;8.96;100.00
2184;BME280;1098;48.940;8.962;2023-02-20T01:36:45;99616.41;;;8.65;100.00
2184;BME280;1098;48.940;8.962;2023-02-20T01:39:17;99608.66;;;8.77;100.00
2184;BME280;1098;48.940;8.962;2023-02-20T01:41:48;99614.25;;;8.90;100.00
2184;BME280;1098;48.940;8.962;2023-02-20T01:44:21;99616.31;;;9.45;100.00
2184;BME280;1098;48.940;8.962;2023-02-20T01:46:52;99616.28;;;8.88;100.00
2184;BME280;1098;48.940;8.962;2023-02-20T01:49:29;99617.84;;;8.97;100.00
2184;BME280;1098;48.940;8.962;2023-02-20T01:52:07;99613.03;;;9.28;100.00
2184;BME280;1098;48.940;8.962;2023-02-20T01:54:38;99608.31;;;9.16;100.00
2184;BME280;1098;48.940;8.962;2023-02-20T01:57:13;99596.81;;;9.07;100.00
2184;BME280;1098;48.940;8.962;2023-02-20T01:59:45;99606.91;;;9.41;100.00
2184;BME280;1098;48.940;8.962;2023-02-20T02:02:15;99603.53;;;9.33;100.00
2184;BME280;1098;48.940;8.962;2023-02-20T02:04:46;99598.19;;;9.39;100.00
2184;BME280;1098;48.940;8.962;2023-02-20T02:07:14;99599.81;;;9.34;100.00
2184;BME280;1098;48.940;8.962;2023-02-20T02:09:48;99598.97;;;8.97;100.00
2184;BME280;1098;48.940;8.962;2023-02-20T02:12:18;99590.38;;;8.72;100.00
2184;BME280;1098;48.940;8.962;2023-02-20T02:14:47;99582.88;;;8.68;100.00
2184;BME280;1098;48.940;8.962;2023-02-20T02:27:03;99584.47;;;8.98;100.00
2184;BME280;1098;48.940;8.962;2023-02-20T02:32:59;99595.47;;;8.82;100.00
2184;BME280;1098;48.940;8.962;2023-02-20T02:38:40;99591.75;;;8.83;100.00
2184;BME280;1098;48.940;8.962;2023-02-20T02:41:29;99596.72;;;8.50;100.00
2184;BME280;1098;48.940;8.962;2023-02-20T02:44:07;99590.47;;;8.64;100.00
2184;BME280;1098;48.940;8.962;2023-02-20T02:46:41;99595.78;;;8.72;100.00
2184;BME280;1098;48.940;8.962;2023-02-20T02:49:19;99588.53;;;8.43;100.00
2184;BME280;1098;48.940;8.962;2023-02-20T02:51:53;99579.13;;;8.54;100.00
2184;BME280;1098;48.940;8.962;2023-02-20T02:54:24;99579.25;;;8.46;100.00
2184;BME280;1098;48.940;8.962;2023-02-20T02:57:18;99575.44;;;9.06;100.00
2184;BME280;1098;48.940;8.962;2023-02-20T02:59:51;99571.94;;;9.26;100.00
2184;BME280;1098;48.940;8.962;2023-02-20T03:02:22;99567.00;;;8.43;100.00
2184;BME280;1098;48.940;8.962;2023-02-20T03:04:53;99572.28;;;9.02;100.00
2184;BME280;1098;48.940;8.962;2023-02-20T03:07:25;99569.31;;;8.46;100.00
2184;BME280;1098;48.940;8.962;2023-02-20T03:09:57;99576.13;;;8.93;100.00
2184;BME280;1098;48.940;8.962;2023-02-20T03:12:30;99561.63;;;8.43;100.00
2184;BME280;1098;48.940;8.962;2023-02-20T03:15:04;99567.75;;;8.52;100.00
2184;BME280;1098;48.940;8.962;2023-02-20T03:17:57;99550.09;;;8.35;100.00
2184;BME280;1098;48.940;8.962;2023-02-20T03:20:32;99568.75;;;8.36;100.00
2184;BME280;1098;48.940;8.962;2023-02-20T03:23:03;99558.91;;;8.43;100.00
2184;BME280;1098;48.940;8.962;2023-02-20T03:25:35;99565.41;;;8.34;100.00
2184;BME280;1098;48.940;8.962;2023-02-20T03:28:09;99565.78;;;8.31;100.00
2184;BME280;1098;48.940;8.962;2023-02-20T03:30:42;99581.00;;;8.24;100.00
2184;BME280;1098;48.940;8.962;2023-02-20T03:33:17;99569.78;;;8.35;100.00
2184;BME280;1098;48.940;8.962;2023-02-20T03:36:07;99561.31;;;8.09;100.00
2184;BME280;1098;48.940;8.962;2023-02-20T03:38:58;99558.25;;;8.26;100.00
2184;BME280;1098;48.940;8.962;2023-02-20T03:41:48;99560.56;;;8.15;100.00
2184;BME280;1098;48.940;8.962;2023-02-20T03:44:41;99565.59;;;8.47;100.00
2184;BME280;1098;48.940;8.962;2023-02-20T03:47:13;99565.94;;;8.15;100.00
2184;BME280;1098;48.940;8.962;2023-02-20T03:49:43;99577.47;;;8.09;100.00
2184;BME280;1098;48.940;8.962;2023-02-20T03:52:16;99570.91;;;8.41;100.00
2184;BME280;1098;48.940;8.962;2023-02-20T03:54:47;99574.78;;;8.68;100.00
2184;BME280;1098;48.940;8.962;2023-02-20T03:57:18;99570.28;;;8.75;100.00
2184;BME280;1098;48.940;8.962;2023-02-20T03:59:55;99568.22;;;8.91;100.00
2184;BME280;1098;48.940;8.962;2023-02-20T04:02:29;99568.34;;;8.83;100.00
2184;BME280;1098;48.940;8.962;2023-02-20T04:05:05;99561.31;;;8.68;100.00
2184;BME280;1098;48.940;8.962;2023-02-20T04:07:38;99566.75;;;8.74;100.00
2184;BME280;1098;48.940;8.962;2023-02-20T04:10:14;99562.19;;;8.75;100.00
2184;BME280;1098;48.940;8.962;2023-02-20T04:12:46;99558.91;;;8.73;100.00
2184;BME280;1098;48.940;8.962;2023-02-20T04:15:18;99555.50;;;8.85;100.00
2184;BME280;1098;48.940;8.962;2023-02-20T04:17:50;99558.25;;;8.56;100.00
2184;BME280;1098;48.940;8.962;2023-02-20T04:20:20;99559.31;;;8.76;100.00
2184;BME280;1098;48.940;8.962;2023-02-20T04:23:01;99545.41;;;8.73;100.00
2184;BME280;1098;48.940;8.962;2023-02-20T04:25:37;99551.13;;;8.48;100.00
2184;BME280;1098;48.940;8.962;2023-02-20T04:28:08;99550.47;;;8.46;100.00
2184;BME280;1098;48.940;8.962;2023-02-20T04:30:48;99541.34;;;8.18;100.00
2184;BME280;1098;48.940;8.962;2023-02-20T04:33:18;99527.16;;;8.24;100.00
2184;BME280;1098;48.940;8.962;2023-02-20T04:35:49;99551.56;;;8.37;100.00
2184;BME280;1098;48.940;8.962;2023-02-20T04:38:18;99557.78;;;8.38;100.00
2184;BME280;1098;48.940;8.962;2023-02-20T04:40:47;99556.75;;;8.53;100.00
2184;BME280;1098;48.940;8.962;2023-02-20T04:43:18;99565.78;;;8.60;100.00
2184;BME280;1098;48.940;8.962;2023-02-20T04:45:48;99558.81;;;8.51;100.00
2184;BME280;1098;48.940;8.962;2023-02-20T04:48:17;99559.91;;;8.72;100.00
2184;BME280;1098;48.940;8.962;2023-02-20T04:50:46;99562.53;;;9.01;100.00
2184;BME280;1098;48.940;8.962;2023-02-20T04:53:16;99562.53;;;8.50;100.00
2184;BME280;1098;48.940;8.962;2023-02-20T04:55:44;99561.22;;;8.61;100.00
2184;BME280;1098;48.940;8.962;2023-02-20T04:58:17;99555.91;;;8.68;100.00
2184;BME280;1098;48.940;8.962;2023-02-20T05:00:56;99564.31;;;9.15;100.00
2184;BME280;1098;48.940;8.962;2023-02-20T05:03:24;99571.81;;;8.99;100.00
2184;BME280;1098;48.940;8.962;2023-02-20T05:05:52;99563.22;;;8.74;100.00
2184;BME280;1098;48.940;8.962;2023-02-20T05:08:21;99555.72;;;8.54;100.00
2184;BME280;1098;48.940;8.962;2023-02-20T05:10:49;99557.44;;;8.41;100.00
2184;BME280;1098;48.940;8.962;2023-02-20T05:13:18;99562.97;;;8.54;100.00
2184;BME280;1098;48.940;8.962;2023-02-20T05:15:46;99559.56;;;8.31;100.00
2184;BME280;1098;48.940;8.962;2023-02-20T05:18:23;99570.81;;;8.49;100.00
2184;BME280;1098;48.940;8.962;2023-02-20T05:20:52;99556.19;;;8.73;100.00
2184;BME280;1098;48.940;8.962;2023-02-20T05:23:38;99555.91;;;8.68;100.00
2184;BME280;1098;48.940;8.962;2023-02-20T05:26:08;99560.03;;;8.34;100.00
2184;BME280;1098;48.940;8.962;2023-02-20T05:28:37;99560.53;;;7.85;100.00
2184;BME280;1098;48.940;8.962;2023-02-20T05:31:05;99559.34;;;8.03;100.00
2184;BME280;1098;48.940;8.962;2023-02-20T05:33:35;99557.16;;;8.36;100.00
2184;BME280;1098;48.940;8.962;2023-02-20T05:36:05;99561.69;;;8.20;100.00
2184;BME280;1098;48.940;8.962;2023-02-20T05:38:33;99564.19;;;8.07;100.00
2184;BME280;1098;48.940;8.962;2023-02-20T05:41:01;99567.41;;;8.03;100.00
2184;BME280;1098;48.940;8.962;2023-02-20T05:43:32;99571.56;;;7.53;100.00
2184;BME280;1098;48.940;8.962;2023-02-20T05:46:00;99563.75;;;7.66;100.00
2184;BME280;1098;48.940;8.962;2023-02-20T05:48:29;99564.06;;;6.72;100.00
2184;BME280;1098;48.940;8.962;2023-02-20T05:50:58;99569.75;;;6.77;100.00
2184;BME280;1098;48.940;8.962;2023-02-20T05:53:27;99551.19;;;6.90;100.00
2184;BME280;1098;48.940;8.962;2023-02-20T05:55:56;99559.25;;;7.21;100.00
2184;BME280;1098;48.940;8.962;2023-02-20T05:58:24;99557.91;;;7.40;100.00
2184;BME280;1098;48.940;8.962;2023-02-20T06:00:53;99491.00;;;7.45;100.00
2184;BME280;1098;48.940;8.962;2023-02-20T06:03:21;99554.72;;;7.59;100.00
2184;BME280;1098;48.940;8.962;2023-02-20T06:05:50;99548.69;;;7.57;100.00
2184;BME280;1098;48.940;8.962;2023-02-20T06:08:19;99556.59;;;7.73;100.00
2184;BME280;1098;48.940;8.962;2023-02-20T06:10:48;99553.38;;;7.78;100.00
2184;BME280;1098;48.940;8.962;2023-02-20T06:13:16;99554.69;;;8.11;100.00
2184;BME280;1098;48.940;8.962;2023-02-20T06:15:45;99556.66;;;8.03;100.00
2184;BME280;1098;48.940;8.962;2023-02-20T06:18:13;99560.44;;;7.18;100.00
2184;BME280;1098;48.940;8.962;2023-02-20T06:20:42;99561.44;;;7.40;100.00
2184;BME280;1098;48.940;8.962;2023-02-20T06:23:10;99556.38;;;7.45;100.00
2184;BME280;1098;48.940;8.962;2023-02-20T06:25:40;99558.34;;;7.06;100.00
2184;BME280;1098;48.940;8.962;2023-02-20T06:28:08;99565.25;;;7.00;100.00
2184;BME280;1098;48.940;8.962;2023-02-20T06:30:36;99574.66;;;7.27;100.00
2184;BME280;1098;48.940;8.962;2023-02-20T06:33:05;99574.16;;;7.01;100.00
2184;BME280;1098;48.940;8.962;2023-02-20T06:35:33;99577.97;;;6.83;100.00
2184;BME280;1098;48.940;8.962;2023-02-20T06:38:04;99570.00;;;6.90;100.00
2184;BME280;1098;48.940;8.962;2023-02-20T06:40:32;99576.81;;;7.69;100.00
2184;BME280;1098;48.940;8.962;2023-02-20T06:43:02;99593.69;;;7.17;100.00
2184;BME280;1098;48.940;8.962;2023-02-20T06:45:30;99582.56;;;7.66;100.00
2184;BME280;1098;48.940;8.962;2023-02-20T06:47:59;99590.06;;;7.33;100.00
2184;BME280;1098;48.940;8.962;2023-02-20T06:50:27;99577.56;;;7.40;100.00
2184;BME280;1098;48.940;8.962;2023-02-20T06:52:55;99582.81;;;7.34;100.00
2184;BME280;1098;48.940;8.962;2023-02-20T06:55:24;99579.13;;;7.35;100.00
2184;BME280;1098;48.940;8.962;2023-02-20T06:57:52;99577.88;;;7.45;100.00
2184;BME280;1098;48.940;8.962;2023-02-20T07:00:22;99567.31;;;7.44;100.00
2184;BME280;1098;48.940;8.962;2023-02-20T07:02:50;99571.22;;;7.33;100.00
2184;BME280;1098;48.940;8.962;2023-02-20T07:05:19;99578.78;;;7.75;100.00
2184;BME280;1098;48.940;8.962;2023-02-20T07:07:47;99580.16;;;7.71;100.00
2184;BME280;1098;48.940;8.962;2023-02-20T07:10:16;99586.47;;;7.64;100.00
2184;BME280;1098;48.940;8.962;2023-02-20T07:12:44;99591.22;;;7.76;100.00
2184;BME280;1098;48.940;8.962;2023-02-20T07:15:13;99581.63;;;8.11;100.00
2184;BME280;1098;48.940;8.962;2023-02-20T07:17:42;99577.16;;;7.89;100.00
2184;BME280;1098;48.940;8.962;2023-02-20T07:20:11;99575.38;;;8.11;100.00
2184;BME280;1098;48.940;8.962;2023-02-20T07:22:48;99565.97;;;8.44;100.00
2184;BME280;1098;48.940;8.962;2023-02-20T07:25:16;99590.31;;;7.46;100.00
2184;BME280;1098;48.940;8.962;2023-02-20T07:27:45;99585.72;;;8.81;100.00
2184;BME280;1098;48.940;8.962;2023-02-20T07:30:16;99591.19;;;8.87;100.00
2184;BME280;1098;48.940;8.962;2023-02-20T07:32:45;99595.84;;;8.79;100.00
2184;BME280;1098;48.940;8.962;2023-02-20T07:35:14;99590.06;;;8.82;100.00
2184;BME280;1098;48.940;8.962;2023-02-20T07:37:42;99604.22;;;8.84;100.00
2184;BME280;1098;48.940;8.962;2023-02-20T07:40:11;99604.84;;;8.86;100.00
2184;BME280;1098;48.940;8.962;2023-02-20T07:42:40;99602.06;;;8.79;100.00
2184;BME280;1098;48.940;8.962;2023-02-20T07:45:21;99593.09;;;8.72;100.00
2184;BME280;1098;48.940;8.962;2023-02-20T07:47:51;99594.03;;;9.01;100.00
2184;BME280;1098;48.940;8.962;2023-02-20T07:50:19;99601.31;;;8.85;100.00
2184;BME280;1098;48.940;8.962;2023-02-20T07:52:48;99585.53;;;9.40;100.00
2184;BME280;1098;48.940;8.962;2023-02-20T07:55:17;99594.50;;;9.04;100.00
2184;BME280;1098;48.940;8.962;2023-02-20T07:57:47;99581.44;;;9.44;100.00
2184;BME280;1098;48.940;8.962;2023-02-20T08:00:18;99580.47;;;9.30;100.00
2184;BME280;1098;48.940;8.962;2023-02-20T08:02:47;99583.09;;;9.66;100.00
2184;BME280;1098;48.940;8.962;2023-02-20T08:05:17;99588.94;;;9.70;100.00
2184;BME280;1098;48.940;8.962;2023-02-20T08:07:46;99589.69;;;9.21;100.00
2184;BME280;1098;48.940;8.962;2023-02-20T08:10:17;99580.47;;;9.73;100.00
2184;BME280;1098;48.940;8.962;2023-02-20T08:12:46;99575.09;;;10.07;100.00
2184;BME280;1098;48.940;8.962;2023-02-20T08:15:16;99571.50;;;10.00;100.00
2184;BME280;1098;48.940;8.962;2023-02-20T08:17:45;99580.44;;;10.00;100.00
2184;BME280;1098;48.940;8.962;2023-02-20T08:20:15;99579.72;;;10.13;100.00
2184;BME280;1098;48.940;8.962;2023-02-20T08:22:47;99584.00;;;9.52;100.00
2184;BME280;1098;48.940;8.962;2023-02-20T08:25:16;99567.66;;;9.60;100.00
2184;BME280;1098;48.940;8.962;2023-02-20T08:27:46;99578.31;;;10.17;100.00
2184;BME280;1098;48.940;8.962;2023-02-20T08:30:18;99576.97;;;10.07;100.00
2184;BME280;1098;48.940;8.962;2023-02-20T08:32:50;99580.75;;;9.84;100.00
2184;BME280;1098;48.940;8.962;2023-02-20T08:35:19;99564.97;;;10.37;100.00
2184;BME280;1098;48.940;8.962;2023-02-20T08:37:48;99573.06;;;10.44;100.00
2184;BME280;1098;48.940;8.962;2023-02-20T08:40:17;99567.13;;;10.20;100.00
2184;BME280;1098;48.940;8.962;2023-02-20T08:42:50;99565.78;;;10.79;100.00
2184;BME280;1098;48.940;8.962;2023-02-20T08:45:19;99567.22;;;10.75;100.00
2184;BME280;1098;48.940;8.962;2023-02-20T08:47:47;99570.41;;;10.91;100.00
2184;BME280;1098;48.940;8.962;2023-02-20T08:50:16;99562.31;;;11.05;100.00
2184;BME280;1098;48.940;8.962;2023-02-20T08:52:45;99564.03;;;11.19;100.00
2184;BME280;1098;48.940;8.962;2023-02-20T08:55:14;99556.72;;;11.13;100.00
2184;BME280;1098;48.940;8.962;2023-02-20T08:57:43;99563.44;;;11.36;100.00
2184;BME280;1098;48.940;8.962;2023-02-20T09:00:14;99557.16;;;11.23;100.00
2184;BME280;1098;48.940;8.962;2023-02-20T09:02:45;99571.16;;;11.46;100.00
2184;BME280;1098;48.940;8.962;2023-02-20T09:05:14;99561.31;;;11.25;100.00
2184;BME280;1098;48.940;8.962;2023-02-20T09:07:43;99556.00;;;11.85;100.00
2184;BME280;1098;48.940;8.962;2023-02-20T09:10:17;99556.63;;;11.87;100.00
2184;BME280;1098;48.940;8.962;2023-02-20T09:12:46;99546.19;;;12.17;100.00
2184;BME280;1098;48.940;8.962;2023-02-20T09:15:16;99555.66;;;12.52;100.00
2184;BME280;1098;48.940;8.962;2023-02-20T09:17:47;99552.03;;;12.85;100.00
2184;BME280;1098;48.940;8.962;2023-02-20T09:20:17;99547.81;;;13.33;100.00
2184;BME280;1098;48.940;8.962;2023-02-20T09:22:49;99545.81;;;13.22;100.00
2184;BME280;1098;48.940;8.962;2023-02-20T09:25:19;99546.06;;;13.07;100.00
2184;BME280;1098;48.940;8.962;2023-02-20T09:27:48;99535.28;;;13.32;100.00
2184;BME280;1098;48.940;8.962;2023-02-20T09:30:17;99536.28;;;12.55;100.00
2184;BME280;1098;48.940;8.962;2023-02-20T09:32:47;99532.78;;;12.93;100.00
2184;BME280;1098;48.940;8.962;2023-02-20T09:35:18;99525.94;;;13.53;100.00
2184;BME280;1098;48.940;8.962;2023-02-20T09:37:49;99525.34;;;13.76;100.00
2184;BME280;1098;48.940;8.962;2023-02-20T09:40:21;99528.50;;;13.10;100.00
2184;BME280;1098;48.940;8.962;2023-02-20T09:43:00;99525.47;;;12.93;100.00
2184;BME280;1098;48.940;8.962;2023-02-20T09:45:35;99523.59;;;13.32;100.00
2184;BME280;1098;48.940;8.962;2023-02-20T09:48:16;99522.47;;;13.71;100.00
2184;BME280;1098;48.940;8.962;2023-02-20T09:50:48;99519.31;;;13.18;100.00
2184;BME280;1098;48.940;8.962;2023-02-20T09:53:23;99518.81;;;13.59;100.00
2184;BME280;1098;48.940;8.962;2023-02-20T09:55:55;99510.09;;;13.25;100.00
2184;BME280;1098;48.940;8.962;2023-02-20T09:58:27;99509.28;;;13.12;100.00
2184;BME280;1098;48.940;8.962;2023-02-20T10:01:04;99510.72;;;13.14;100.00
2184;BME280;1098;48.940;8.962;2023-02-20T10:03:36;99508.13;;;12.50;100.00
2184;BME280;1098;48.940;8.962;2023-02-20T10:06:12;99511.22;;;12.66;100.00
2184;BME280;1098;48.940;8.962;2023-02-20T10:08:42;99511.88;;;13.00;100.00
2184;BME280;1098;48.940;8.962;2023-02-20T10:11:21;99508.63;;;13.23;100.00
2184;BME280;1098;48.940;8.962;2023-02-20T10:13:56;99505.56;;;13.44;100.00
2184;BME280;1098;48.940;8.962;2023-02-20T10:16:33;99498.00;;;13.21;100.00
2184;BME280;1098;48.940;8.962;2023-02-20T10:19:14;99491.41;;;13.35;100.00
2184;BME280;1098;48.940;8.962;2023-02-20T10:21:51;99487.88;;;13.35;100.00
2184;BME280;1098;48.940;8.962;2023-02-20T10:24:35;99483.22;;;13.67;100.00
2184;BME280;1098;48.940;8.962;2023-02-20T10:27:18;99494.44;;;13.21;100.00
2184;BME280;1098;48.940;8.962;2023-02-20T10:29:50;99495.59;;;13.63;100.00
2184;BME280;1098;48.940;8.962;2023-02-20T10:32:21;99491.91;;;14.19;100.00
2184;BME280;1098;48.940;8.962;2023-02-20T10:34:55;99488.88;;;14.08;100.00
2184;BME280;1098;48.940;8.962;2023-02-20T10:37:28;99495.56;;;13.88;100.00
2184;BME280;1098;48.940;8.962;2023-02-20T10:40:17;99495.16;;;14.09;100.00
2184;BME280;1098;48.940;8.962;2023-02-20T10:42:53;99489.75;;;13.84;100.00
2184;BME280;1098;48.940;8.962;2023-02-20T10:45:33;99480.59;;;14.22;100.00
2184;BME280;1098;48.940;8.962;2023-02-20T10:48:06;99484.13;;;14.22;100.00
2184;BME280;1098;48.940;8.962;2023-02-20T10:50:39;99473.53;;;14.14;100.00
2184;BME280;1098;48.940;8.962;2023-02-20T10:53:15;99467.13;;;13.90;100.00
2184;BME280;1098;48.940;8.962;2023-02-20T10:55:52;99472.81;;;14.07;100.00
2184;BME280;1098;48.940;8.962;2023-02-20T10:58:27;99472.75;;;14.32;100.00
2184;BME280;1098;48.940;8.962;2023-02-20T11:00:59;99471.59;;;14.21;100.00
2184;BME280;1098;48.940;8.962;2023-02-20T11:03:37;99465.16;;;13.97;100.00
2184;BME280;1098;48.940;8.962;2023-02-20T11:06:12;99469.09;;;14.20;100.00
2184;BME280;1098;48.940;8.962;2023-02-20T11:08:42;99475.63;;;14.85;100.00
2184;BME280;1098;48.940;8.962;2023-02-20T11:11:20;99467.31;;;14.50;100.00
2184;BME280;1098;48.940;8.962;2023-02-20T11:13:54;99454.06;;;14.72;100.00
2184;BME280;1098;48.940;8.962;2023-02-20T11:16:28;99457.72;;;14.48;100.00
2184;BME280;1098;48.940;8.962;2023-02-20T11:19:12;99460.22;;;14.49;100.00
2184;BME280;1098;48.940;8.962;2023-02-20T11:21:46;99456.72;;;14.24;100.00
2184;BME280;1098;48.940;8.962;2023-02-20T11:24:27;99449.78;;;14.76;100.00
2184;BME280;1098;48.940;8.962;2023-02-20T11:27:06;99452.47;;;14.64;100.00
2184;BME280;1098;48.940;8.962;2023-02-20T11:29:40;99439.19;;;14.56;100.00
2184;BME280;1098;48.940;8.962;2023-02-20T11:32:28;99425.91;;;14.48;100.00
2184;BME280;1098;48.940;8.962;2023-02-20T11:35:13;99432.00;;;14.92;100.00
2184;BME280;1098;48.940;8.962;2023-02-20T11:37:43;99418.56;;;14.67;100.00
2184;BME280;1098;48.940;8.962;2023-02-20T11:40:25;99417.63;;;15.15;100.00
2184;BME280;1098;48.940;8.962;2023-02-20T11:42:55;99422.16;;;15.32;100.00
2184;BME280;1098;48.940;8.962;2023-02-20T11:45:26;99421.97;;;14.92;100.00
2184;BME280;1098;48.940;8.962;2023-02-20T11:48:07;99409.41;;;14.91;100.00
2184;BME280;1098;48.940;8.962;2023-02-20T11:50:38;99403.38;;;14.89;100.00
2184;BME280;1098;48.940;8.962;2023-02-20T11:53:17;99405.56;;;15.10;100.00
2184;BME280;1098;48.940;8.962;2023-02-20T11:55:46;99398.13;;;15.29;100.00
2184;BME280;1098;48.940;8.962;2023-02-20T11:58:27;99389.22;;;15.10;100.00
2184;BME280;1098;48.940;8.962;2023-02-20T12:00:57;99387.78;;;14.96;100.00
2184;BME280;1098;48.940;8.962;2023-02-20T12:03:27;99390.25;;;14.98;100.00
2184;BME280;1098;48.940;8.962;2023-02-20T12:05:56;99375.78;;;14.86;100.00
2184;BME280;1098;48.940;8.962;2023-02-20T12:08:41;99377.66;;;15.62;100.00
2184;BME280;1098;48.940;8.962;2023-02-20T12:11:13;99366.66;;;15.57;100.00
2184;BME280;1098;48.940;8.962;2023-02-20T12:13:44;99361.63;;;15.89;100.00
2184;BME280;1098;48.940;8.962;2023-02-20T12:16:39;99354.41;;;15.94;100.00
2184;BME280;1098;48.940;8.962;2023-02-20T12:19:15;99358.03;;;16.11;100.00
2184;BME280;1098;48.940;8.962;2023-02-20T12:21:58;99353.00;;;15.80;100.00
2184;BME280;1098;48.940;8.962;2023-02-20T12:24:44;99348.06;;;16.17;100.00
2184;BME280;1098;48.940;8.962;2023-02-20T12:27:29;99330.81;;;16.00;100.00
2184;BME280;1098;48.940;8.962;2023-02-20T12:30:09;63131.69;;;-143.11;100.00
2184;BME280;1098;48.940;8.962;2023-02-20T12:32:51;63131.69;;;-143.11;100.00
2184;BME280;1098;48.940;8.962;2023-02-20T12:35:28;63131.69;;;-143.11;100.00
2184;BME280;1098;48.940;8.962;2023-02-20T12:38:16;63131.69;;;-143.11;100.00
2184;BME280;1098;48.940;8.962;2023-02-20T12:40:58;63131.69;;;-143.11;100.00
2184;BME280;1098;48.940;8.962;2023-02-20T12:43:38;63131.69;;;-143.11;100.00
2184;BME280;1098;48.940;8.962;2023-02-20T12:46:16;63131.69;;;-143.11;100.00
2184;BME280;1098;48.940;8.962;2023-02-20T12:48:56;63131.69;;;-143.11;100.00
2184;BME280;1098;48.940;8.962;2023-02-20T12:51:37;63131.69;;;-143.11;100.00
2184;BME280;1098;48.940;8.962;2023-02-20T12:54:27;63131.69;;;-143.11;100.00
2184;BME280;1098;48.940;8.962;2023-02-20T12:57:07;63131.69;;;-143.11;100.00
2184;BME280;1098;48.940;8.962;2023-02-20T12:59:49;63131.69;;;-143.11;100.00
2184;BME280;1098;48.940;8.962;2023-02-20T13:02:24;63131.69;;;-143.11;100.00
2184;BME280;1098;48.940;8.962;2023-02-20T13:05:15;63131.69;;;-143.11;100.00
2184;BME280;1098;48.940;8.962;2023-02-20T13:07:50;63131.69;;;-143.11;100.00
2184;BME280;1098;48.940;8.962;2023-02-20T13:10:21;63131.69;;;-143.11;100.00
2184;BME280;1098;48.940;8.962;2023-02-20T13:12:51;63131.69;;;-143.11;100.00
2184;BME280;1098;48.940;8.962;2023-02-20T13:15:33;63131.69;;;-143.11;100.00
2184;BME280;1098;48.940;8.962;2023-02-20T13:18:08;63131.69;;;-143.11;100.00
2184;BME280;1098;48.940;8.962;2023-02-20T13:20:49;63131.69;;;-143.11;100.00
2184;BME280;1098;48.940;8.962;2023-02-20T13:23:30;63131.69;;;-143.11;100.00
2184;BME280;1098;48.940;8.962;2023-02-20T13:26:00;63131.69;;;-143.11;100.00
2184;BME280;1098;48.940;8.962;2023-02-20T13:28:39;63131.69;;;-143.11;100.00
2184;BME280;1098;48.940;8.962;2023-02-20T13:31:19;63131.69;;;-143.11;100.00
2184;BME280;1098;48.940;8.962;2023-02-20T13:33:50;63131.69;;;-143.11;100.00
2184;BME280;1098;48.940;8.962;2023-02-20T13:36:40;63131.69;;;-143.11;100.00
2184;BME280;1098;48.940;8.962;2023-02-20T13:42:31;63131.69;;;-143.11;100.00
2184;BME280;1098;48.940;8.962;2023-02-20T13:45:00;63131.69;;;-143.11;100.00
2184;BME280;1098;48.940;8.962;2023-02-20T13:47:36;63131.69;;;-143.11;100.00
2184;BME280;1098;48.940;8.962;2023-02-20T13:50:30;63131.69;;;-143.11;100.00
2184;BME280;1098;48.940;8.962;2023-02-20T13:53:04;63131.69;;;-143.11;100.00
2184;BME280;1098;48.940;8.962;2023-02-20T13:55:33;63131.69;;;-143.11;100.00
2184;BME280;1098;48.940;8.962;2023-02-20T13:58:10;63131.69;;;-143.11;100.00
2184;BME280;1098;48.940;8.962;2023-02-20T14:00:50;63131.69;;;-143.11;100.00
2184;BME280;1098;48.940;8.962;2023-02-20T14:03:30;63131.69;;;-143.11;100.00
2184;BME280;1098;48.940;8.962;2023-02-20T14:06:07;63131.69;;;-143.11;100.00